sensor_id;sensor_type;location;lat;lon;timestamp;pressure;altitude;pressure_sealevel;temperature;humidity
66801;BME280;53703;50.326;19.122;2023-09-07T00:02:58;99581.78;;;17.62;63.50
66801;BME280;53703;50.326;19.122;2023-09-07T00:05:53;99584.42;;;17.63;63.64
66801;BME280;53703;50.326;19.122;2023-09-07T00:08:47;99582.38;;;17.60;63.69
66801;BME280;53703;50.326;19.122;2023-09-07T00:11:41;99582.15;;;17.60;63.71
66801;BME280;53703;50.326;19.122;2023-09-07T00:14:35;99578.64;;;17.61;63.41
66801;BME280;53703;50.326;19.122;2023-09-07T00:17:30;99582.05;;;17.56;63.52
66801;BME280;53703;50.326;19.122;2023-09-07T00:20:24;99585.42;;;17.53;63.60
66801;BME280;53703;50.326;19.122;2023-09-07T00:23:18;99585.27;;;17.52;63.56
66801;BME280;53703;50.326;19.122;2023-09-07T00:26:12;99583.73;;;17.55;63.42
66801;BME280;53703;50.326;19.122;2023-09-07T00:29:06;99583.58;;;17.53;63.39
66801;BME280;53703;50.326;19.122;2023-09-07T00:32:00;99577.99;;;17.51;63.31
66801;BME280;53703;50.326;19.122;2023-09-07T00:34:55;99584.84;;;17.47;63.34
66801;BME280;53703;50.326;19.122;2023-09-07T00:37:49;99577.23;;;17.45;63.32
66801;BME280;53703;50.326;19.122;2023-09-07T00:40:45;99578.59;;;17.44;63.32
66801;BME280;53703;50.326;19.122;2023-09-07T00:43:39;99578.05;;;17.44;63.19
66801;BME280;53703;50.326;19.122;2023-09-07T00:46:34;99582.14;;;17.42;62.99
66801;BME280;53703;50.326;19.122;2023-09-07T00:49:28;99579.08;;;17.43;63.06
66801;BME280;53703;50.326;19.122;2023-09-07T00:52:23;99580.14;;;17.38;63.10
66801;BME280;53703;50.326;19.122;2023-09-07T00:55:17;99580.51;;;17.39;63.11
66801;BME280;53703;50.326;19.122;2023-09-07T00:58:11;99583.27;;;17.37;62.93
66801;BME280;53703;50.326;19.122;2023-09-07T01:01:05;99585.64;;;17.37;62.91
66801;BME280;53703;50.326;19.122;2023-09-07T01:03:59;99581.99;;;17.37;62.79
66801;BME280;53703;50.326;19.122;2023-09-07T01:07:02;99582.70;;;17.36;62.97
66801;BME280;53703;50.326;19.122;2023-09-07T01:10:00;99586.16;;;17.37;62.58
66801;BME280;53703;50.326;19.122;2023-09-07T01:12:56;99582.05;;;17.30;62.84
66801;BME280;53703;50.326;19.122;2023-09-07T01:15:50;99584.05;;;17.29;62.61
66801;BME280;53703;50.326;19.122;2023-09-07T01:18:46;99585.65;;;17.26;62.75
66801;BME280;53703;50.326;19.122;2023-09-07T01:21:41;99583.31;;;17.26;62.89
66801;BME280;53703;50.326;19.122;2023-09-07T01:24:36;99577.94;;;17.29;62.60
66801;BME280;53703;50.326;19.122;2023-09-07T01:27:31;99583.16;;;17.23;62.75
66801;BME280;53703;50.326;19.122;2023-09-07T01:30:26;99588.59;;;17.25;62.67
66801;BME280;53703;50.326;19.122;2023-09-07T01:33:20;99587.09;;;17.20;62.71
66801;BME280;53703;50.326;19.122;2023-09-07T01:36:14;99582.98;;;17.22;62.41
66801;BME280;53703;50.326;19.122;2023-09-07T01:39:10;99577.85;;;17.21;62.54
66801;BME280;53703;50.326;19.122;2023-09-07T01:42:04;99575.35;;;17.21;62.38
66801;BME280;53703;50.326;19.122;2023-09-07T01:44:58;99568.91;;;17.19;62.42
66801;BME280;53703;50.326;19.122;2023-09-07T01:47:53;99572.00;;;17.13;62.27
66801;BME280;53703;50.326;19.122;2023-09-07T01:50:47;99571.96;;;17.13;62.30
66801;BME280;53703;50.326;19.122;2023-09-07T01:53:48;99570.66;;;17.17;62.15
66801;BME280;53703;50.326;19.122;2023-09-07T01:56:42;99580.52;;;17.12;62.05
66801;BME280;53703;50.326;19.122;2023-09-07T01:59:36;99578.64;;;17.14;62.01
66801;BME280;53703;50.326;19.122;2023-09-07T02:02:30;99575.63;;;17.16;61.99
66801;BME280;53703;50.326;19.122;2023-09-07T02:05:24;99580.78;;;17.13;62.00
66801;BME280;53703;50.326;19.122;2023-09-07T02:08:18;99582.36;;;17.10;61.98
66801;BME280;53703;50.326;19.122;2023-09-07T02:11:12;99579.34;;;17.06;62.22
66801;BME280;53703;50.326;19.122;2023-09-07T02:14:06;99578.77;;;17.07;61.95
66801;BME280;53703;50.326;19.122;2023-09-07T02:17:01;99581.22;;;17.09;61.71
66801;BME280;53703;50.326;19.122;2023-09-07T02:19:56;99576.52;;;17.06;61.91
66801;BME280;53703;50.326;19.122;2023-09-07T02:22:50;99573.72;;;17.07;61.79
66801;BME280;53703;50.326;19.122;2023-09-07T02:25:44;99566.16;;;17.03;62.01
66801;BME280;53703;50.326;19.122;2023-09-07T02:28:39;99560.05;;;17.05;61.82
66801;BME280;53703;50.326;19.122;2023-09-07T02:31:33;99563.33;;;16.97;61.86
66801;BME280;53703;50.326;19.122;2023-09-07T02:34:27;99563.42;;;16.98;61.77
66801;BME280;53703;50.326;19.122;2023-09-07T02:37:21;99561.90;;;16.97;61.82
66801;BME280;53703;50.326;19.122;2023-09-07T02:40:16;99563.58;;;16.98;61.63
66801;BME280;53703;50.326;19.122;2023-09-07T02:43:10;99563.02;;;16.94;61.55
66801;BME280;53703;50.326;19.122;2023-09-07T02:46:04;99561.72;;;16.92;61.67
66801;BME280;53703;50.326;19.122;2023-09-07T02:48:59;99559.77;;;16.91;61.43
66801;BME280;53703;50.326;19.122;2023-09-07T02:51:53;99559.33;;;16.93;61.45
66801;BME280;53703;50.326;19.122;2023-09-07T02:54:47;99559.41;;;16.88;61.39
66801;BME280;53703;50.326;19.122;2023-09-07T02:57:41;99567.44;;;16.86;61.36
66801;BME280;53703;50.326;19.122;2023-09-07T03:00:35;99569.84;;;16.87;61.37
66801;BME280;53703;50.326;19.122;2023-09-07T03:03:49;99568.58;;;16.84;61.40
66801;BME280;53703;50.326;19.122;2023-09-07T03:06:43;99570.89;;;16.86;61.39
66801;BME280;53703;50.326;19.122;2023-09-07T03:09:37;99566.08;;;16.84;61.52
66801;BME280;53703;50.326;19.122;2023-09-07T03:12:31;99564.85;;;16.86;61.39
66801;BME280;53703;50.326;19.122;2023-09-07T03:15:25;99562.40;;;16.83;61.35
66801;BME280;53703;50.326;19.122;2023-09-07T03:18:20;99560.35;;;16.82;61.35
66801;BME280;53703;50.326;19.122;2023-09-07T03:21:15;99562.30;;;16.81;61.38
66801;BME280;53703;50.326;19.122;2023-09-07T03:24:09;99561.29;;;16.80;61.36
66801;BME280;53703;50.326;19.122;2023-09-07T03:27:04;99561.86;;;16.82;61.22
66801;BME280;53703;50.326;19.122;2023-09-07T03:29:58;99565.60;;;16.78;61.30
66801;BME280;53703;50.326;19.122;2023-09-07T03:32:52;99567.09;;;16.79;61.26
66801;BME280;53703;50.326;19.122;2023-09-07T03:35:46;99571.14;;;16.76;61.46
66801;BME280;53703;50.326;19.122;2023-09-07T03:38:41;99571.88;;;16.75;61.23
66801;BME280;53703;50.326;19.122;2023-09-07T03:41:36;99571.27;;;16.78;61.26
66801;BME280;53703;50.326;19.122;2023-09-07T03:44:30;99568.30;;;16.75;61.14
66801;BME280;53703;50.326;19.122;2023-09-07T03:47:24;99569.52;;;16.75;61.24
66801;BME280;53703;50.326;19.122;2023-09-07T03:50:21;99571.36;;;16.74;61.22
66801;BME280;53703;50.326;19.122;2023-09-07T03:53:15;99574.88;;;16.72;61.13
66801;BME280;53703;50.326;19.122;2023-09-07T03:56:10;99575.52;;;16.69;61.28
66801;BME280;53703;50.326;19.122;2023-09-07T03:59:04;99578.18;;;16.77;61.10
66801;BME280;53703;50.326;19.122;2023-09-07T04:01:58;99581.75;;;16.79;61.15
66801;BME280;53703;50.326;19.122;2023-09-07T04:04:54;99584.22;;;16.70;61.19
66801;BME280;53703;50.326;19.122;2023-09-07T04:07:49;99579.31;;;16.70;61.30
66801;BME280;53703;50.326;19.122;2023-09-07T04:10:44;99582.57;;;16.70;61.44
66801;BME280;53703;50.326;19.122;2023-09-07T04:13:38;99588.39;;;16.68;61.15
66801;BME280;53703;50.326;19.122;2023-09-07T04:16:32;99589.16;;;16.66;61.15
66801;BME280;53703;50.326;19.122;2023-09-07T04:19:26;99594.00;;;16.67;61.33
66801;BME280;53703;50.326;19.122;2023-09-07T04:22:20;99593.78;;;16.63;61.39
66801;BME280;53703;50.326;19.122;2023-09-07T04:25:15;99593.31;;;16.60;61.31
66801;BME280;53703;50.326;19.122;2023-09-07T04:28:10;99593.38;;;16.59;61.69
66801;BME280;53703;50.326;19.122;2023-09-07T04:31:04;99595.42;;;16.65;61.65
66801;BME280;53703;50.326;19.122;2023-09-07T04:33:59;99596.26;;;16.57;61.86
66801;BME280;53703;50.326;19.122;2023-09-07T04:36:55;99598.75;;;16.64;61.77
66801;BME280;53703;50.326;19.122;2023-09-07T04:39:51;99598.34;;;16.63;61.84
66801;BME280;53703;50.326;19.122;2023-09-07T04:42:45;99601.90;;;16.64;61.92
66801;BME280;53703;50.326;19.122;2023-09-07T04:45:53;99600.85;;;16.72;61.69
66801;BME280;53703;50.326;19.122;2023-09-07T04:48:47;99597.35;;;16.57;62.47
66801;BME280;53703;50.326;19.122;2023-09-07T04:51:42;99599.37;;;16.64;62.28
66801;BME280;53703;50.326;19.122;2023-09-07T04:54:36;99599.68;;;16.70;62.10
66801;BME280;53703;50.326;19.122;2023-09-07T04:57:32;99600.30;;;16.68;62.27
66801;BME280;53703;50.326;19.122;2023-09-07T05:00:26;99601.45;;;16.70;62.26
66801;BME280;53703;50.326;19.122;2023-09-07T05:03:20;99600.66;;;16.73;62.39
66801;BME280;53703;50.326;19.122;2023-09-07T05:06:14;99599.68;;;16.72;62.60
66801;BME280;53703;50.326;19.122;2023-09-07T05:09:09;99601.16;;;16.75;62.78
66801;BME280;53703;50.326;19.122;2023-09-07T05:12:03;99601.02;;;16.82;62.74
66801;BME280;53703;50.326;19.122;2023-09-07T05:14:57;99600.04;;;16.84;62.99
66801;BME280;53703;50.326;19.122;2023-09-07T05:17:52;99602.83;;;16.91;62.89
66801;BME280;53703;50.326;19.122;2023-09-07T05:20:47;99601.64;;;16.90;63.06
66801;BME280;53703;50.326;19.122;2023-09-07T05:23:44;99607.04;;;16.92;63.37
66801;BME280;53703;50.326;19.122;2023-09-07T05:26:38;99606.27;;;16.94;63.39
66801;BME280;53703;50.326;19.122;2023-09-07T05:29:32;99605.66;;;16.96;63.59
66801;BME280;53703;50.326;19.122;2023-09-07T05:32:16;99608.59;;;16.90;63.96
66801;BME280;53703;50.326;19.122;2023-09-07T05:35:11;99608.13;;;16.99;63.78
66801;BME280;53703;50.326;19.122;2023-09-07T05:38:08;99611.39;;;17.03;63.87
66801;BME280;53703;50.326;19.122;2023-09-07T05:41:03;99608.66;;;17.06;64.04
66801;BME280;53703;50.326;19.122;2023-09-07T05:43:57;99613.48;;;17.11;64.15
66801;BME280;53703;50.326;19.122;2023-09-07T05:46:52;99617.80;;;17.11;64.51
66801;BME280;53703;50.326;19.122;2023-09-07T05:49:47;99619.95;;;17.13;64.61
66801;BME280;53703;50.326;19.122;2023-09-07T05:52:41;99618.91;;;17.21;64.60
66801;BME280;53703;50.326;19.122;2023-09-07T05:55:35;99622.28;;;17.24;64.89
66801;BME280;53703;50.326;19.122;2023-09-07T05:58:29;99622.60;;;17.32;64.72
66801;BME280;53703;50.326;19.122;2023-09-07T06:01:24;99620.29;;;17.32;64.86
66801;BME280;53703;50.326;19.122;2023-09-07T06:04:18;99625.89;;;17.37;65.07
66801;BME280;53703;50.326;19.122;2023-09-07T06:07:12;99628.73;;;17.37;65.47
66801;BME280;53703;50.326;19.122;2023-09-07T06:10:08;99632.39;;;17.43;65.47
66801;BME280;53703;50.326;19.122;2023-09-07T06:13:03;99636.81;;;17.44;65.59
66801;BME280;53703;50.326;19.122;2023-09-07T06:15:57;99637.54;;;17.53;65.64
66801;BME280;53703;50.326;19.122;2023-09-07T06:18:53;99637.60;;;17.53;65.87
66801;BME280;53703;50.326;19.122;2023-09-07T06:21:47;99640.33;;;17.60;65.80
66801;BME280;53703;50.326;19.122;2023-09-07T06:24:42;99641.41;;;17.59;66.12
66801;BME280;53703;50.326;19.122;2023-09-07T06:27:36;99642.45;;;17.59;66.47
66801;BME280;53703;50.326;19.122;2023-09-07T06:30:31;99647.20;;;17.63;66.39
66801;BME280;53703;50.326;19.122;2023-09-07T06:33:25;99647.04;;;17.68;66.59
66801;BME280;53703;50.326;19.122;2023-09-07T06:36:19;99648.39;;;17.75;66.08
66801;BME280;53703;50.326;19.122;2023-09-07T06:39:33;99648.94;;;17.78;66.32
66801;BME280;53703;50.326;19.122;2023-09-07T06:42:27;99645.76;;;17.85;65.65
66801;BME280;53703;50.326;19.122;2023-09-07T06:45:21;99648.03;;;17.88;66.00
66801;BME280;53703;50.326;19.122;2023-09-07T06:48:16;99650.46;;;17.95;65.89
66801;BME280;53703;50.326;19.122;2023-09-07T06:51:10;99655.47;;;18.04;65.48
66801;BME280;53703;50.326;19.122;2023-09-07T06:54:04;99651.55;;;18.06;65.86
66801;BME280;53703;50.326;19.122;2023-09-07T06:56:58;99659.73;;;18.11;65.74
66801;BME280;53703;50.326;19.122;2023-09-07T06:59:52;99654.74;;;18.13;66.30
66801;BME280;53703;50.326;19.122;2023-09-07T07:02:46;99655.59;;;18.17;65.79
66801;BME280;53703;50.326;19.122;2023-09-07T07:05:41;99658.10;;;18.22;65.41
66801;BME280;53703;50.326;19.122;2023-09-07T07:08:35;99658.63;;;18.25;65.31
66801;BME280;53703;50.326;19.122;2023-09-07T07:11:29;99658.09;;;18.24;65.51
66801;BME280;53703;50.326;19.122;2023-09-07T07:14:23;99654.09;;;18.34;64.83
66801;BME280;53703;50.326;19.122;2023-09-07T07:17:16;99651.20;;;18.40;64.24
66801;BME280;53703;50.326;19.122;2023-09-07T07:20:12;99651.72;;;18.43;64.10
66801;BME280;53703;50.326;19.122;2023-09-07T07:23:06;99654.93;;;18.49;63.55
66801;BME280;53703;50.326;19.122;2023-09-07T07:26:01;99653.08;;;18.52;63.66
66801;BME280;53703;50.326;19.122;2023-09-07T07:28:55;99650.82;;;18.51;63.58
66801;BME280;53703;50.326;19.122;2023-09-07T07:31:49;99655.63;;;18.55;63.35
66801;BME280;53703;50.326;19.122;2023-09-07T07:34:43;99659.36;;;18.53;63.26
66801;BME280;53703;50.326;19.122;2023-09-07T07:37:37;99655.77;;;18.57;63.04
66801;BME280;53703;50.326;19.122;2023-09-07T07:40:31;99650.73;;;18.63;62.89
66801;BME280;53703;50.326;19.122;2023-09-07T07:43:25;99646.29;;;18.62;62.95
66801;BME280;53703;50.326;19.122;2023-09-07T07:46:20;99645.23;;;18.63;62.96
66801;BME280;53703;50.326;19.122;2023-09-07T07:49:14;99644.25;;;18.68;62.67
66801;BME280;53703;50.326;19.122;2023-09-07T07:52:08;99649.39;;;18.64;62.91
66801;BME280;53703;50.326;19.122;2023-09-07T07:55:03;99650.25;;;18.71;62.58
66801;BME280;53703;50.326;19.122;2023-09-07T07:57:57;99655.76;;;18.71;62.54
66801;BME280;53703;50.326;19.122;2023-09-07T08:00:51;99656.31;;;18.67;62.73
66801;BME280;53703;50.326;19.122;2023-09-07T08:03:45;99659.40;;;18.68;62.91
66801;BME280;53703;50.326;19.122;2023-09-07T08:06:40;99660.19;;;18.67;62.79
66801;BME280;53703;50.326;19.122;2023-09-07T08:09:34;99662.46;;;18.69;62.72
66801;BME280;53703;50.326;19.122;2023-09-07T08:12:28;99661.62;;;18.69;62.76
66801;BME280;53703;50.326;19.122;2023-09-07T08:15:22;99664.69;;;18.73;62.60
66801;BME280;53703;50.326;19.122;2023-09-07T08:18:18;99666.04;;;18.77;62.54
66801;BME280;53703;50.326;19.122;2023-09-07T08:21:14;99668.61;;;18.80;62.63
66801;BME280;53703;50.326;19.122;2023-09-07T08:24:09;99669.30;;;18.75;62.71
66801;BME280;53703;50.326;19.122;2023-09-07T08:27:04;99668.62;;;18.78;62.53
66801;BME280;53703;50.326;19.122;2023-09-07T08:29:58;99667.60;;;18.80;62.96
66801;BME280;53703;50.326;19.122;2023-09-07T08:32:52;99667.11;;;18.93;62.96
66801;BME280;53703;50.326;19.122;2023-09-07T08:35:52;99667.77;;;18.90;63.18
66801;BME280;53703;50.326;19.122;2023-09-07T08:38:48;99667.80;;;18.90;62.89
66801;BME280;53703;50.326;19.122;2023-09-07T08:41:44;99671.95;;;18.84;62.92
66801;BME280;53703;50.326;19.122;2023-09-07T08:44:54;99667.11;;;18.89;63.35
66801;BME280;53703;50.326;19.122;2023-09-07T08:47:51;99667.63;;;19.07;62.75
66801;BME280;53703;50.326;19.122;2023-09-07T08:50:46;99666.60;;;18.96;63.31
66801;BME280;53703;50.326;19.122;2023-09-07T08:53:42;99664.16;;;19.00;63.16
66801;BME280;53703;50.326;19.122;2023-09-07T08:56:39;99661.11;;;19.22;62.45
66801;BME280;53703;50.326;19.122;2023-09-07T08:59:33;99659.81;;;19.11;63.18
66801;BME280;53703;50.326;19.122;2023-09-07T09:02:28;99662.72;;;19.03;64.12
66801;BME280;53703;50.326;19.122;2023-09-07T09:05:23;99658.52;;;18.95;64.07
66801;BME280;53703;50.326;19.122;2023-09-07T09:08:17;99659.70;;;18.91;64.62
66801;BME280;53703;50.326;19.122;2023-09-07T09:11:13;99657.94;;;18.91;64.24
66801;BME280;53703;50.326;19.122;2023-09-07T09:14:08;99657.36;;;18.93;63.91
66801;BME280;53703;50.326;19.122;2023-09-07T09:17:02;99657.77;;;18.91;64.10
66801;BME280;53703;50.326;19.122;2023-09-07T09:19:56;99655.65;;;18.91;64.03
66801;BME280;53703;50.326;19.122;2023-09-07T09:22:51;99658.62;;;18.90;63.97
66801;BME280;53703;50.326;19.122;2023-09-07T09:25:45;99654.67;;;18.96;63.49
66801;BME280;53703;50.326;19.122;2023-09-07T09:28:41;99657.63;;;19.01;63.46
66801;BME280;53703;50.326;19.122;2023-09-07T09:31:35;99655.44;;;18.97;63.46
66801;BME280;53703;50.326;19.122;2023-09-07T09:34:33;99660.14;;;18.95;63.70
66801;BME280;53703;50.326;19.122;2023-09-07T09:37:27;99658.14;;;18.96;63.57
66801;BME280;53703;50.326;19.122;2023-09-07T09:40:22;99656.09;;;18.96;63.23
66801;BME280;53703;50.326;19.122;2023-09-07T09:43:17;99655.60;;;18.97;63.35
66801;BME280;53703;50.326;19.122;2023-09-07T09:46:13;99650.40;;;19.07;63.08
66801;BME280;53703;50.326;19.122;2023-09-07T09:49:09;99656.86;;;18.98;63.62
66801;BME280;53703;50.326;19.122;2023-09-07T09:52:04;99655.40;;;19.00;63.27
66801;BME280;53703;50.326;19.122;2023-09-07T09:54:59;99655.41;;;19.16;62.71
66801;BME280;53703;50.326;19.122;2023-09-07T09:57:59;99652.55;;;19.21;62.36
66801;BME280;53703;50.326;19.122;2023-09-07T10:00:56;99649.23;;;19.27;62.42
66801;BME280;53703;50.326;19.122;2023-09-07T10:03:51;99652.63;;;19.33;61.95
66801;BME280;53703;50.326;19.122;2023-09-07T10:06:58;99654.98;;;19.25;62.25
66801;BME280;53703;50.326;19.122;2023-09-07T10:09:57;99652.30;;;19.29;62.10
66801;BME280;53703;50.326;19.122;2023-09-07T10:12:51;99649.64;;;19.30;62.04
66801;BME280;53703;50.326;19.122;2023-09-07T10:15:46;99656.21;;;19.26;62.16
66801;BME280;53703;50.326;19.122;2023-09-07T10:18:36;99655.55;;;19.25;62.31
66801;BME280;53703;50.326;19.122;2023-09-07T10:21:41;99650.48;;;19.22;62.38
66801;BME280;53703;50.326;19.122;2023-09-07T10:24:35;99648.35;;;19.23;62.52
66801;BME280;53703;50.326;19.122;2023-09-07T10:27:41;99649.98;;;19.24;62.34
66801;BME280;53703;50.326;19.122;2023-09-07T10:30:36;99649.66;;;19.20;62.48
66801;BME280;53703;50.326;19.122;2023-09-07T10:33:31;99651.39;;;19.26;62.36
66801;BME280;53703;50.326;19.122;2023-09-07T10:36:27;99652.29;;;19.30;61.94
66801;BME280;53703;50.326;19.122;2023-09-07T10:39:22;99651.79;;;19.32;61.91
66801;BME280;53703;50.326;19.122;2023-09-07T10:42:24;99646.61;;;19.31;61.76
66801;BME280;53703;50.326;19.122;2023-09-07T10:45:19;99647.54;;;19.36;61.75
66801;BME280;53703;50.326;19.122;2023-09-07T10:48:13;99644.35;;;19.40;61.53
66801;BME280;53703;50.326;19.122;2023-09-07T10:51:08;99644.17;;;19.77;59.91
66801;BME280;53703;50.326;19.122;2023-09-07T10:54:01;99641.13;;;19.86;59.15
66801;BME280;53703;50.326;19.122;2023-09-07T10:56:46;99640.64;;;19.78;59.23
66801;BME280;53703;50.326;19.122;2023-09-07T10:59:45;99638.30;;;19.76;59.23
66801;BME280;53703;50.326;19.122;2023-09-07T11:02:40;99637.35;;;19.61;59.89
66801;BME280;53703;50.326;19.122;2023-09-07T11:05:34;99632.30;;;19.50;60.75
66801;BME280;53703;50.326;19.122;2023-09-07T11:08:30;99632.97;;;19.51;60.65
66801;BME280;53703;50.326;19.122;2023-09-07T11:11:25;99635.65;;;19.52;60.91
66801;BME280;53703;50.326;19.122;2023-09-07T11:14:28;99638.81;;;19.46;61.09
66801;BME280;53703;50.326;19.122;2023-09-07T11:17:05;99635.70;;;19.47;60.91
66801;BME280;53703;50.326;19.122;2023-09-07T11:19:39;99638.68;;;19.47;61.02
66801;BME280;53703;50.326;19.122;2023-09-07T11:22:22;99634.13;;;19.50;60.56
66801;BME280;53703;50.326;19.122;2023-09-07T11:25:16;99637.97;;;19.45;60.76
66801;BME280;53703;50.326;19.122;2023-09-07T11:27:52;99636.05;;;19.46;60.86
66801;BME280;53703;50.326;19.122;2023-09-07T11:30:54;99627.61;;;19.51;60.22
66801;BME280;53703;50.326;19.122;2023-09-07T11:33:49;99625.04;;;19.54;60.16
66801;BME280;53703;50.326;19.122;2023-09-07T11:36:44;99624.98;;;19.59;59.90
66801;BME280;53703;50.326;19.122;2023-09-07T11:39:38;99621.12;;;19.57;60.08
66801;BME280;53703;50.326;19.122;2023-09-07T11:42:32;99621.73;;;19.55;60.32
66801;BME280;53703;50.326;19.122;2023-09-07T11:45:26;99619.91;;;19.61;60.48
66801;BME280;53703;50.326;19.122;2023-09-07T11:48:20;99617.86;;;19.65;60.28
66801;BME280;53703;50.326;19.122;2023-09-07T11:50:59;99614.08;;;19.61;60.46
66801;BME280;53703;50.326;19.122;2023-09-07T11:53:53;99616.13;;;19.63;60.83
66801;BME280;53703;50.326;19.122;2023-09-07T11:56:47;99612.94;;;19.56;61.83
66801;BME280;53703;50.326;19.122;2023-09-07T11:59:41;99607.50;;;19.58;61.39
66801;BME280;53703;50.326;19.122;2023-09-07T12:02:50;99609.20;;;19.64;61.18
66801;BME280;53703;50.326;19.122;2023-09-07T12:05:44;99615.84;;;19.58;61.95
66801;BME280;53703;50.326;19.122;2023-09-07T12:08:41;99615.68;;;19.53;62.83
66801;BME280;53703;50.326;19.122;2023-09-07T12:11:35;99612.96;;;19.57;62.23
66801;BME280;53703;50.326;19.122;2023-09-07T12:14:29;99616.71;;;19.53;61.89
66801;BME280;53703;50.326;19.122;2023-09-07T12:17:24;99616.05;;;19.52;62.14
66801;BME280;53703;50.326;19.122;2023-09-07T12:20:18;99610.19;;;19.54;62.13
66801;BME280;53703;50.326;19.122;2023-09-07T12:23:12;99607.29;;;19.51;62.24
66801;BME280;53703;50.326;19.122;2023-09-07T12:26:05;99601.33;;;19.50;62.10
66801;BME280;53703;50.326;19.122;2023-09-07T12:29:01;99599.23;;;19.53;61.96
66801;BME280;53703;50.326;19.122;2023-09-07T12:31:55;99591.05;;;19.53;62.30
66801;BME280;53703;50.326;19.122;2023-09-07T12:34:49;99591.77;;;19.53;62.05
66801;BME280;53703;50.326;19.122;2023-09-07T12:37:46;99589.75;;;19.56;61.92
66801;BME280;53703;50.326;19.122;2023-09-07T12:40:40;99592.63;;;19.52;62.12
66801;BME280;53703;50.326;19.122;2023-09-07T12:43:35;99590.20;;;19.53;62.00
66801;BME280;53703;50.326;19.122;2023-09-07T12:46:34;99588.63;;;19.72;61.15
66801;BME280;53703;50.326;19.122;2023-09-07T12:49:29;99587.45;;;19.70;61.06
66801;BME280;53703;50.326;19.122;2023-09-07T12:52:23;99587.22;;;19.60;61.42
66801;BME280;53703;50.326;19.122;2023-09-07T12:54:57;99587.14;;;19.59;61.38
66801;BME280;53703;50.326;19.122;2023-09-07T12:57:51;99584.70;;;19.58;61.45
66801;BME280;53703;50.326;19.122;2023-09-07T13:00:45;99580.83;;;19.56;61.25
66801;BME280;53703;50.326;19.122;2023-09-07T13:03:40;99580.18;;;19.69;60.34
66801;BME280;53703;50.326;19.122;2023-09-07T13:06:34;99576.66;;;19.53;61.03
66801;BME280;53703;50.326;19.122;2023-09-07T13:09:28;99580.51;;;19.56;60.79
66801;BME280;53703;50.326;19.122;2023-09-07T13:12:22;99578.05;;;19.52;61.01
66801;BME280;53703;50.326;19.122;2023-09-07T13:15:16;99575.77;;;19.52;60.54
66801;BME280;53703;50.326;19.122;2023-09-07T13:18:10;99570.94;;;19.50;60.64
66801;BME280;53703;50.326;19.122;2023-09-07T13:21:05;99570.15;;;19.52;60.53
66801;BME280;53703;50.326;19.122;2023-09-07T13:24:00;99568.15;;;19.49;60.44
66801;BME280;53703;50.326;19.122;2023-09-07T13:26:54;99567.15;;;19.51;60.45
66801;BME280;53703;50.326;19.122;2023-09-07T13:29:49;99565.25;;;19.48;60.66
66801;BME280;53703;50.326;19.122;2023-09-07T13:32:43;99564.36;;;19.50;60.50
66801;BME280;53703;50.326;19.122;2023-09-07T13:35:39;99563.95;;;19.49;60.34
66801;BME280;53703;50.326;19.122;2023-09-07T13:38:33;99563.19;;;19.46;60.70
66801;BME280;53703;50.326;19.122;2023-09-07T13:41:27;99562.38;;;19.45;60.88
66801;BME280;53703;50.326;19.122;2023-09-07T13:44:21;99561.77;;;19.48;60.57
66801;BME280;53703;50.326;19.122;2023-09-07T13:47:15;99564.23;;;19.46;60.65
66801;BME280;53703;50.326;19.122;2023-09-07T13:50:10;99565.85;;;19.47;60.58
66801;BME280;53703;50.326;19.122;2023-09-07T13:53:04;99561.25;;;19.45;60.52
66801;BME280;53703;50.326;19.122;2023-09-07T13:55:58;99560.70;;;19.45;60.49
66801;BME280;53703;50.326;19.122;2023-09-07T13:58:52;99561.30;;;19.46;60.43
66801;BME280;53703;50.326;19.122;2023-09-07T14:01:46;99558.55;;;19.44;60.23
66801;BME280;53703;50.326;19.122;2023-09-07T14:04:41;99555.70;;;19.45;60.42
66801;BME280;53703;50.326;19.122;2023-09-07T14:07:35;99550.97;;;19.47;60.20
66801;BME280;53703;50.326;19.122;2023-09-07T14:10:29;99557.04;;;19.45;60.16
66801;BME280;53703;50.326;19.122;2023-09-07T14:13:23;99552.17;;;19.47;60.13
66801;BME280;53703;50.326;19.122;2023-09-07T14:16:17;99552.23;;;19.45;59.93
66801;BME280;53703;50.326;19.122;2023-09-07T14:19:12;99553.36;;;19.45;59.73
66801;BME280;53703;50.326;19.122;2023-09-07T14:22:07;99551.44;;;19.49;59.72
66801;BME280;53703;50.326;19.122;2023-09-07T14:25:01;99553.51;;;19.43;59.65
66801;BME280;53703;50.326;19.122;2023-09-07T14:27:55;99545.17;;;19.42;59.86
66801;BME280;53703;50.326;19.122;2023-09-07T14:30:42;99544.73;;;19.48;59.45
66801;BME280;53703;50.326;19.122;2023-09-07T14:33:37;99547.36;;;19.54;59.34
66801;BME280;53703;50.326;19.122;2023-09-07T14:36:32;99542.83;;;19.55;59.32
66801;BME280;53703;50.326;19.122;2023-09-07T14:39:26;99537.29;;;19.49;59.72
66801;BME280;53703;50.326;19.122;2023-09-07T14:42:20;99538.79;;;19.55;59.65
66801;BME280;53703;50.326;19.122;2023-09-07T14:45:14;99539.03;;;19.49;60.32
66801;BME280;53703;50.326;19.122;2023-09-07T14:48:05;99532.01;;;19.47;60.71
66801;BME280;53703;50.326;19.122;2023-09-07T14:51:00;99532.48;;;19.49;60.47
66801;BME280;53703;50.326;19.122;2023-09-07T14:53:33;99527.54;;;19.48;60.65
66801;BME280;53703;50.326;19.122;2023-09-07T14:56:28;99531.10;;;19.51;60.55
66801;BME280;53703;50.326;19.122;2023-09-07T14:59:27;99529.85;;;19.64;59.97
66801;BME280;53703;50.326;19.122;2023-09-07T15:02:21;99531.92;;;19.58;60.52
66801;BME280;53703;50.326;19.122;2023-09-07T15:05:06;99535.95;;;19.51;60.80
66801;BME280;53703;50.326;19.122;2023-09-07T15:07:49;99531.05;;;19.53;60.53
66801;BME280;53703;50.326;19.122;2023-09-07T15:10:43;99531.09;;;19.48;60.85
66801;BME280;53703;50.326;19.122;2023-09-07T15:13:36;99533.42;;;19.47;61.02